Time,TemperatureF,DewpointF,PressureIn,WindDirection,WindDirectionDegrees,WindSpeedMPH,WindSpeedGustMPH,Humidity,HourlyPrecipIn,Conditions,Clouds,dailyrainin,SoftwareType,DateUTC
2013-04-13 00:00:00,55.7,54.3,30.00,SE,146,0.0,6.0,95,0.00,,,0.00,Wunderground v.1.15,2013-04-13 05:00:00,
2013-04-13 00:05:00,55.4,54.0,30.00,SE,146,0.0,6.0,95,0.00,,,0.00,Wunderground v.1.15,2013-04-13 05:05:00,
2013-04-13 00:15:00,55.3,54.2,30.00,SE,146,0.0,0.0,96,0.00,,,0.00,Wunderground v.1.15,2013-04-13 05:15:00,
2013-04-13 00:20:00,55.1,53.7,30.00,SE,146,0.0,0.0,95,0.00,,,0.00,Wunderground v.1.15,2013-04-13 05:20:00,
2013-04-13 00:30:00,54.4,53.0,30.00,SE,146,0.0,0.0,95,0.00,,,0.00,Wunderground v.1.15,2013-04-13 05:30:00,
2013-04-13 00:35:00,54.3,53.2,30.00,SE,146,0.0,0.0,96,0.00,,,0.00,Wunderground v.1.15,2013-04-13 05:35:00,
2013-04-13 00:40:00,54.3,53.2,29.99,SE,146,0.0,0.0,96,0.00,,,0.00,Wunderground v.1.15,2013-04-13 05:40:00,
2013-04-13 00:45:00,53.9,52.5,30.00,SE,146,0.0,0.0,95,0.00,,,0.00,Wunderground v.1.15,2013-04-13 05:45:00,
2013-04-13 00:50:00,53.6,52.2,30.00,SE,146,0.0,0.0,95,0.00,,,0.00,Wunderground v.1.15,2013-04-13 05:50:00,
2013-04-13 00:55:00,53.4,52.0,29.99,SE,146,0.0,0.0,95,0.00,,,0.00,Wunderground v.1.15,2013-04-13 05:55:00,
2013-04-13 01:05:00,53.3,51.0,29.99,SE,146,0.0,1.0,92,0.00,,,0.00,Wunderground v.1.15,2013-04-13 06:05:00,
2013-04-13 01:10:00,53.3,51.0,29.99,SE,146,0.0,1.0,92,0.00,,,0.00,Wunderground v.1.15,2013-04-13 06:10:00,
2013-04-13 01:15:00,53.6,51.9,29.99,SE,146,0.0,1.0,94,0.00,,,0.00,Wunderground v.1.15,2013-04-13 06:15:00,
2013-04-13 01:20:00,53.4,51.1,29.99,SE,146,0.0,1.0,92,0.00,,,0.00,Wunderground v.1.15,2013-04-13 06:20:00,
2013-04-13 01:25:00,53.2,50.6,29.99,SE,146,0.0,1.0,91,0.00,,,0.00,Wunderground v.1.15,2013-04-13 06:25:00,
2013-04-13 01:30:00,53.4,50.5,29.99,SE,146,0.0,1.0,90,0.00,,,0.00,Wunderground v.1.15,2013-04-13 06:30:00,
2013-04-13 01:35:00,53.3,50.1,29.99,SE,146,0.0,1.0,89,0.00,,,0.00,Wunderground v.1.15,2013-04-13 06:35:00,
2013-04-13 01:40:00,53.3,50.1,29.99,SE,146,0.0,1.0,89,0.00,,,0.00,Wunderground v.1.15,2013-04-13 06:40:00,
2013-04-13 01:45:00,53.3,50.1,29.99,SE,146,0.0,1.0,89,0.00,,,0.00,Wunderground v.1.15,2013-04-13 06:45:00,
2013-04-13 01:50:00,53.4,50.2,29.99,SE,146,0.0,1.0,89,0.00,,,0.00,Wunderground v.1.15,2013-04-13 06:50:00,
2013-04-13 01:55:00,53.5,50.9,29.99,SE,146,0.0,1.0,91,0.00,,,0.00,Wunderground v.1.15,2013-04-13 06:55:00,
2013-04-13 02:10:00,52.6,50.0,29.99,SE,146,0.0,1.0,91,0.00,,,0.00,Wunderground v.1.15,2013-04-13 07:10:00,
2013-04-13 02:20:00,54.6,49.9,29.98,NNE,26,0.0,1.0,84,0.00,,,0.00,Wunderground v.1.15,2013-04-13 07:20:00,
2013-04-13 02:25:00,54.9,49.8,29.98,NNE,26,0.0,1.0,83,0.00,,,0.00,Wunderground v.1.15,2013-04-13 07:25:00,
2013-04-13 02:30:00,55.0,51.8,29.98,NNE,27,0.0,1.0,89,0.00,,,0.00,Wunderground v.1.15,2013-04-13 07:30:00,
2013-04-13 02:35:00,54.5,51.0,29.98,NNE,26,0.0,1.0,88,0.00,,,0.00,Wunderground v.1.15,2013-04-13 07:35:00,
2013-04-13 02:45:00,54.3,49.9,29.98,NNE,26,0.0,1.0,85,0.00,,,0.00,Wunderground v.1.15,2013-04-13 07:45:00,
2013-04-13 02:50:00,54.8,49.7,29.98,NNE,27,0.0,1.0,83,0.00,,,0.00,Wunderground v.1.15,2013-04-13 07:50:00,
2013-04-13 02:55:00,55.2,50.1,29.97,NNE,27,0.0,1.0,83,0.00,,,0.00,Wunderground v.1.15,2013-04-13 07:55:00,
2013-04-13 03:00:00,55.2,51.1,29.97,NNE,27,0.0,1.0,86,0.00,,,0.00,Wunderground v.1.15,2013-04-13 08:00:00,
2013-04-13 03:05:00,54.9,51.7,29.97,NNE,27,0.0,1.0,89,0.00,,,0.00,Wunderground v.1.15,2013-04-13 08:05:00,
2013-04-13 03:10:00,54.3,51.1,29.97,NNE,27,0.0,1.0,89,0.00,,,0.00,Wunderground v.1.15,2013-04-13 08:10:00,
2013-04-13 03:20:00,54.6,50.2,29.97,NNE,27,0.0,1.0,85,0.00,,,0.00,Wunderground v.1.15,2013-04-13 08:20:00,
2013-04-13 03:25:00,54.9,50.8,29.97,NNE,27,0.0,1.0,86,0.00,,,0.00,Wunderground v.1.15,2013-04-13 08:25:00,
2013-04-13 03:30:00,54.7,51.5,29.97,SE,136,0.0,1.0,89,0.00,,,0.00,Wunderground v.1.15,2013-04-13 08:30:00,
2013-04-13 03:35:00,54.3,51.7,29.97,SE,136,0.0,1.0,91,0.00,,,0.00,Wunderground v.1.15,2013-04-13 08:35:00,
2013-04-13 03:40:00,53.7,50.8,29.97,SE,136,1.0,1.0,90,0.00,,,0.00,Wunderground v.1.15,2013-04-13 08:40:00,
2013-04-13 03:50:00,54.4,49.7,29.97,ESE,114,0.0,1.0,84,0.00,,,0.00,Wunderground v.1.15,2013-04-13 08:50:00,
2013-04-13 03:55:00,54.8,51.6,29.97,East,94,0.0,1.0,89,0.00,,,0.00,Wunderground v.1.15,2013-04-13 08:55:00,
2013-04-13 04:05:00,54.1,52.1,29.97,East,94,1.0,1.0,93,0.00,,,0.00,Wunderground v.1.15,2013-04-13 09:05:00,
2013-04-13 04:10:00,53.7,51.7,29.97,East,94,0.0,1.0,93,0.00,,,0.00,Wunderground v.1.15,2013-04-13 09:10:00,
2013-04-13 04:20:00,53.6,51.9,29.97,East,94,0.0,1.0,94,0.00,,,0.00,Wunderground v.1.15,2013-04-13 09:20:00,
2013-04-13 04:25:00,53.4,51.7,29.97,East,94,0.0,1.0,94,0.00,,,0.00,Wunderground v.1.15,2013-04-13 09:25:00,
2013-04-13 04:30:00,53.6,52.2,29.97,East,94,0.0,1.0,95,0.00,,,0.00,Wunderground v.1.15,2013-04-13 09:30:00,
2013-04-13 04:35:00,53.7,52.3,29.97,East,94,0.0,1.0,95,0.00,,,0.00,Wunderground v.1.15,2013-04-13 09:35:00,
2013-04-13 04:40:00,53.7,52.3,29.97,East,94,0.0,1.0,95,0.00,,,0.00,Wunderground v.1.15,2013-04-13 09:40:00,
2013-04-13 04:50:00,53.4,52.0,29.98,East,94,0.0,1.0,95,0.00,,,0.00,Wunderground v.1.15,2013-04-13 09:50:00,
2013-04-13 04:55:00,53.2,51.8,29.98,East,94,0.0,1.0,95,0.00,,,0.00,Wunderground v.1.15,2013-04-13 09:55:00,
2013-04-13 05:05:00,52.1,50.4,29.98,East,94,0.0,1.0,94,0.00,,,0.00,Wunderground v.1.15,2013-04-13 10:05:00,
2013-04-13 05:10:00,51.8,50.4,29.98,East,94,0.0,1.0,95,0.00,,,0.00,Wunderground v.1.15,2013-04-13 10:10:00,
2013-04-13 05:15:00,51.6,50.2,29.98,East,94,0.0,1.0,95,0.00,,,0.00,Wunderground v.1.15,2013-04-13 10:15:00,
2013-04-13 05:20:00,51.5,50.1,29.98,East,94,0.0,1.0,95,0.00,,,0.00,Wunderground v.1.15,2013-04-13 10:20:00,
2013-04-13 05:25:00,51.4,50.0,29.98,East,94,0.0,1.0,95,0.00,,,0.00,Wunderground v.1.15,2013-04-13 10:25:00,
2013-04-13 05:30:00,51.5,50.4,29.98,East,94,0.0,1.0,96,0.00,,,0.00,Wunderground v.1.15,2013-04-13 10:30:00,
2013-04-13 05:40:00,51.6,50.5,29.98,East,94,0.0,1.0,96,0.00,,,0.00,Wunderground v.1.15,2013-04-13 10:40:00,
2013-04-13 05:45:00,51.2,50.1,29.98,East,94,0.0,1.0,96,0.00,,,0.00,Wunderground v.1.15,2013-04-13 10:45:00,
2013-04-13 05:55:00,50.6,49.5,29.98,East,94,0.0,1.0,96,0.00,,,0.00,Wunderground v.1.15,2013-04-13 10:55:00,
2013-04-13 06:00:00,50.5,49.4,29.98,East,94,0.0,1.0,96,0.00,,,0.00,Wunderground v.1.15,2013-04-13 11:00:00,
2013-04-13 06:05:00,50.8,50.0,29.98,East,94,0.0,1.0,97,0.00,,,0.00,Wunderground v.1.15,2013-04-13 11:05:00,
2013-04-13 06:15:00,50.8,50.0,29.99,East,94,0.0,1.0,97,0.00,,,0.00,Wunderground v.1.15,2013-04-13 11:15:00,
2013-04-13 06:20:00,50.7,49.9,29.99,East,94,0.0,1.0,97,0.00,,,0.00,Wunderground v.1.15,2013-04-13 11:20:00,
2013-04-13 06:25:00,50.4,49.6,29.99,East,94,0.0,1.0,97,0.00,,,0.00,Wunderground v.1.15,2013-04-13 11:25:00,
2013-04-13 06:35:00,50.7,50.2,30.00,East,94,0.0,1.0,98,0.00,,,0.00,Wunderground v.1.15,2013-04-13 11:35:00,
2013-04-13 06:40:00,50.7,49.9,30.00,ESE,120,0.0,1.0,97,0.00,,,0.00,Wunderground v.1.15,2013-04-13 11:40:00,
2013-04-13 06:45:00,50.6,49.8,30.00,SE,130,1.0,1.0,97,0.00,,,0.00,Wunderground v.1.15,2013-04-13 11:45:00,
2013-04-13 06:55:00,50.2,49.4,30.00,SE,128,0.0,1.0,97,0.00,,,0.00,Wunderground v.1.15,2013-04-13 11:55:00,
2013-04-13 07:00:00,50.1,49.3,30.00,SE,128,0.0,1.0,97,0.00,,,0.00,Wunderground v.1.15,2013-04-13 12:00:00,
2013-04-13 07:10:00,50.7,50.2,30.00,SE,128,0.0,1.0,98,0.00,,,0.00,Wunderground v.1.15,2013-04-13 12:10:00,
2013-04-13 07:15:00,51.1,50.3,30.01,SE,127,0.0,1.0,97,0.00,,,0.00,Wunderground v.1.15,2013-04-13 12:15:00,
2013-04-13 07:20:00,51.5,50.7,30.01,SE,127,0.0,1.0,97,0.00,,,0.00,Wunderground v.1.15,2013-04-13 12:20:00,
2013-04-13 07:30:00,52.2,51.1,30.01,ESE,114,0.0,1.0,96,0.00,,,0.00,Wunderground v.1.15,2013-04-13 12:30:00,
2013-04-13 07:35:00,53.0,51.6,30.01,SE,141,0.0,1.0,95,0.00,,,0.00,Wunderground v.1.15,2013-04-13 12:35:00,
2013-04-13 07:40:00,53.2,51.8,30.01,SSE,148,1.0,1.0,95,0.00,,,0.00,Wunderground v.1.15,2013-04-13 12:40:00,
2013-04-13 07:45:00,53.6,51.9,30.01,SSE,148,1.0,1.0,94,0.00,,,0.00,Wunderground v.1.15,2013-04-13 12:45:00,
2013-04-13 07:55:00,54.3,51.4,30.01,ESE,111,0.0,1.0,90,0.00,,,0.00,Wunderground v.1.15,2013-04-13 12:55:00,
2013-04-13 08:00:00,55.3,51.2,30.01,ESE,105,1.0,1.0,86,0.00,,,0.00,Wunderground v.1.15,2013-04-13 13:00:00,
2013-04-13 08:05:00,56.4,51.6,30.01,SE,131,2.0,2.0,84,0.00,,,0.00,Wunderground v.1.15,2013-04-13 13:05:00,
2013-04-13 08:10:00,57.4,51.6,30.01,SE,129,2.0,2.0,81,0.00,,,0.00,Wunderground v.1.15,2013-04-13 13:10:00,
2013-04-13 08:15:00,58.0,51.5,30.01,ESE,107,3.0,3.0,79,0.00,,,0.00,Wunderground v.1.15,2013-04-13 13:15:00,
2013-04-13 08:25:00,59.6,52.7,30.02,East,101,2.0,3.0,78,0.00,,,0.00,Wunderground v.1.15,2013-04-13 13:25:00,
2013-04-13 08:30:00,60.1,51.0,30.02,SE,133,2.0,2.0,72,0.00,,,0.00,Wunderground v.1.15,2013-04-13 13:30:00,
2013-04-13 08:35:00,60.9,52.6,30.02,ESE,102,3.0,3.0,74,0.00,,,0.00,Wunderground v.1.15,2013-04-13 13:35:00,
2013-04-13 08:40:00,61.5,52.4,30.03,East,93,4.0,4.0,72,0.00,,,0.00,Wunderground v.1.15,2013-04-13 13:40:00,
2013-04-13 08:45:00,62.4,52.5,30.03,SE,134,4.0,4.0,70,0.00,,,0.00,Wunderground v.1.15,2013-04-13 13:45:00,
2013-04-13 08:50:00,62.7,52.8,30.03,East,88,3.0,4.0,70,0.00,,,0.00,Wunderground v.1.15,2013-04-13 13:50:00,
2013-04-13 09:00:00,62.9,52.6,30.03,ESE,120,4.0,4.0,69,0.00,,,0.00,Wunderground v.1.15,2013-04-13 14:00:00,
2013-04-13 09:05:00,62.8,52.5,30.03,SE,133,4.0,4.0,69,0.00,,,0.00,Wunderground v.1.15,2013-04-13 14:05:00,
2013-04-13 09:15:00,63.6,53.2,30.03,ESE,105,3.0,3.0,69,0.00,,,0.00,Wunderground v.1.15,2013-04-13 14:15:00,
2013-04-13 09:20:00,64.7,52.7,30.03,SE,136,3.0,3.0,65,0.00,,,0.00,Wunderground v.1.15,2013-04-13 14:20:00,
2013-04-13 09:25:00,64.9,52.4,30.03,SE,141,4.0,4.0,64,0.00,,,0.00,Wunderground v.1.15,2013-04-13 14:25:00,
2013-04-13 09:30:00,65.2,52.3,30.03,SE,131,4.0,4.0,63,0.00,,,0.00,Wunderground v.1.15,2013-04-13 14:30:00,
2013-04-13 09:35:00,65.8,52.9,30.03,SE,140,3.0,4.0,63,0.00,,,0.00,Wunderground v.1.15,2013-04-13 14:35:00,
2013-04-13 09:40:00,66.4,51.6,30.03,SSE,165,4.0,4.0,59,0.00,,,0.00,Wunderground v.1.15,2013-04-13 14:40:00,
2013-04-13 09:50:00,67.4,51.2,30.03,SE,140,5.0,6.0,56,0.00,,,0.00,Wunderground v.1.15,2013-04-13 14:50:00,
2013-04-13 09:55:00,67.7,51.4,30.03,ESE,117,6.0,6.0,56,0.00,,,0.00,Wunderground v.1.15,2013-04-13 14:55:00,
2013-04-13 10:05:00,68.9,51.1,30.03,SE,130,5.0,7.0,53,0.00,,,0.00,Wunderground v.1.15,2013-04-13 15:05:00,
2013-04-13 10:10:00,69.0,49.0,30.03,East,80,5.0,8.0,49,0.00,,,0.00,Wunderground v.1.15,2013-04-13 15:10:00,
2013-04-13 10:15:00,69.2,51.3,30.03,ESE,121,6.0,8.0,53,0.00,,,0.00,Wunderground v.1.15,2013-04-13 15:15:00,
2013-04-13 10:20:00,70.1,52.2,30.03,ESE,113,6.0,6.0,53,0.00,,,0.00,Wunderground v.1.15,2013-04-13 15:20:00,
2013-04-13 10:25:00,70.4,51.9,30.02,ESE,103,5.0,6.0,52,0.00,,,0.00,Wunderground v.1.15,2013-04-13 15:25:00,
2013-04-13 10:35:00,71.1,51.5,30.02,ESE,122,6.0,6.0,50,0.00,,,0.00,Wunderground v.1.15,2013-04-13 15:35:00,
2013-04-13 10:40:00,71.2,51.1,30.02,SE,134,6.0,6.0,49,0.00,,,0.00,Wunderground v.1.15,2013-04-13 15:40:00,
2013-04-13 10:45:00,71.8,51.0,30.02,East,94,6.0,9.0,48,0.00,,,0.00,Wunderground v.1.15,2013-04-13 15:45:00,
2013-04-13 10:50:00,71.8,49.3,30.02,SSE,148,7.0,8.0,45,0.00,,,0.00,Wunderground v.1.15,2013-04-13 15:50:00,
2013-04-13 10:55:00,71.9,51.1,30.02,South,188,8.0,8.0,48,0.00,,,0.00,Wunderground v.1.15,2013-04-13 15:55:00,
2013-04-13 11:05:00,72.9,54.2,30.02,SE,139,6.0,8.0,52,0.00,,,0.00,Wunderground v.1.15,2013-04-13 16:05:00,
2013-04-13 11:10:00,72.5,48.7,30.02,SE,128,8.0,8.0,43,0.00,,,0.00,Wunderground v.1.15,2013-04-13 16:10:00,
2013-04-13 11:15:00,72.7,51.9,30.02,East,96,8.0,9.0,48,0.00,,,0.00,Wunderground v.1.15,2013-04-13 16:15:00,
2013-04-13 11:20:00,72.8,50.2,30.01,ESE,108,8.0,10.0,45,0.00,,,0.00,Wunderground v.1.15,2013-04-13 16:20:00,
2013-04-13 11:25:00,73.1,48.6,30.01,ESE,104,9.0,11.0,42,0.00,,,0.00,Wunderground v.1.15,2013-04-13 16:25:00,
2013-04-13 11:35:00,73.5,50.2,30.01,East,91,8.0,8.0,44,0.00,,,0.00,Wunderground v.1.15,2013-04-13 16:35:00,
2013-04-13 11:40:00,73.3,45.4,30.01,ENE,75,9.0,11.0,37,0.00,,,0.00,Wunderground v.1.15,2013-04-13 16:40:00,
2013-04-13 11:45:00,73.2,46.8,30.01,ESE,117,11.0,11.0,39,0.00,,,0.00,Wunderground v.1.15,2013-04-13 16:45:00,
2013-04-13 11:50:00,72.8,46.4,30.01,ENE,57,9.0,9.0,39,0.00,,,0.00,Wunderground v.1.15,2013-04-13 16:50:00,
2013-04-13 11:55:00,73.0,47.2,30.00,ESE,111,9.0,12.0,40,0.00,,,0.00,Wunderground v.1.15,2013-04-13 16:55:00,
2013-04-13 12:00:00,73.7,46.5,30.00,East,95,9.0,9.0,38,0.00,,,0.00,Wunderground v.1.15,2013-04-13 17:00:00,
2013-04-13 12:10:00,74.3,47.7,30.00,SE,124,8.0,8.0,39,0.00,,,0.00,Wunderground v.1.15,2013-04-13 17:10:00,
2013-04-13 12:15:00,74.4,46.4,30.00,ESE,107,8.0,14.0,37,0.00,,,0.00,Wunderground v.1.15,2013-04-13 17:15:00,
2013-04-13 12:20:00,74.6,48.0,30.00,ESE,107,8.0,8.0,39,0.00,,,0.00,Wunderground v.1.15,2013-04-13 17:20:00,
2013-04-13 12:25:00,75.0,48.4,29.99,ESE,122,7.0,8.0,39,0.00,,,0.00,Wunderground v.1.15,2013-04-13 17:25:00,
2013-04-13 12:30:00,75.7,47.6,30.00,ESE,115,7.0,7.0,37,0.00,,,0.00,Wunderground v.1.15,2013-04-13 17:30:00,
2013-04-13 12:35:00,75.5,46.7,29.99,SE,136,7.0,7.0,36,0.00,,,0.00,Wunderground v.1.15,2013-04-13 17:35:00,
2013-04-13 12:40:00,75.8,50.4,29.99,SE,131,6.0,10.0,41,0.00,,,0.00,Wunderground v.1.15,2013-04-13 17:40:00,
2013-04-13 12:50:00,76.0,47.1,29.98,ESE,113,9.0,9.0,36,0.00,,,0.00,Wunderground v.1.15,2013-04-13 17:50:00,
2013-04-13 13:05:00,76.4,45.9,29.98,SE,131,6.0,6.0,34,0.00,,,0.00,Wunderground v.1.15,2013-04-13 18:05:00,
2013-04-13 13:10:00,76.8,44.7,29.98,SE,137,7.0,7.0,32,0.00,,,0.00,Wunderground v.1.15,2013-04-13 18:10:00,
2013-04-13 13:15:00,76.8,46.3,29.97,ESE,105,8.0,8.0,34,0.00,,,0.00,Wunderground v.1.15,2013-04-13 18:15:00,
2013-04-13 13:20:00,77.0,49.4,29.97,SE,133,8.0,8.0,38,0.00,,,0.00,Wunderground v.1.15,2013-04-13 18:20:00,
2013-04-13 13:30:00,76.4,46.7,29.96,SE,146,8.0,8.0,35,0.00,,,0.00,Wunderground v.1.15,2013-04-13 18:30:00,
2013-04-13 13:35:00,76.8,47.1,29.95,SE,131,8.0,8.0,35,0.00,,,0.00,Wunderground v.1.15,2013-04-13 18:35:00,
2013-04-13 13:40:00,76.8,44.7,29.95,ESE,113,7.0,7.0,32,0.00,,,0.00,Wunderground v.1.15,2013-04-13 18:40:00,
2013-04-13 13:45:00,77.5,47.7,29.96,ESE,110,6.0,7.0,35,0.00,,,0.00,Wunderground v.1.15,2013-04-13 18:45:00,
2013-04-13 13:50:00,77.8,45.6,29.95,SE,140,7.0,7.0,32,0.00,,,0.00,Wunderground v.1.15,2013-04-13 18:50:00,
2013-04-13 13:55:00,78.2,44.2,29.95,SE,127,7.0,10.0,30,0.00,,,0.00,Wunderground v.1.15,2013-04-13 18:55:00,
2013-04-13 14:05:00,77.9,45.7,29.94,ESE,115,8.0,10.0,32,0.00,,,0.00,Wunderground v.1.15,2013-04-13 19:05:00,
2013-04-13 14:10:00,77.8,47.9,29.93,SE,141,8.0,8.0,35,0.00,,,0.00,Wunderground v.1.15,2013-04-13 19:10:00,
2013-04-13 14:15:00,77.8,45.6,29.93,ESE,108,8.0,12.0,32,0.00,,,0.00,Wunderground v.1.15,2013-04-13 19:15:00,
2013-04-13 14:20:00,77.5,44.5,29.93,East,91,9.0,10.0,31,0.00,,,0.00,Wunderground v.1.15,2013-04-13 19:20:00,
2013-04-13 14:25:00,77.4,45.2,29.93,ESE,119,9.0,10.0,32,0.00,,,0.00,Wunderground v.1.15,2013-04-13 19:25:00,
2013-04-13 14:30:00,77.9,48.8,29.92,East,84,7.0,9.0,36,0.00,,,0.00,Wunderground v.1.15,2013-04-13 19:30:00,
2013-04-13 14:35:00,77.7,45.5,29.92,ENE,65,6.0,9.0,32,0.00,,,0.00,Wunderground v.1.15,2013-04-13 19:35:00,
2013-04-13 14:40:00,78.0,47.4,29.92,SE,141,7.0,7.0,34,0.00,,,0.00,Wunderground v.1.15,2013-04-13 19:40:00,
2013-04-13 14:45:00,78.4,46.9,29.92,SE,134,7.0,8.0,33,0.00,,,0.00,Wunderground v.1.15,2013-04-13 19:45:00,
2013-04-13 14:50:00,78.8,46.4,29.91,SE,133,7.0,7.0,32,0.00,,,0.00,Wunderground v.1.15,2013-04-13 19:50:00,
2013-04-13 14:55:00,79.1,47.5,29.91,East,101,7.0,9.0,33,0.00,,,0.00,Wunderground v.1.15,2013-04-13 19:55:00,
2013-04-13 15:05:00,78.3,46.8,29.90,ESE,113,9.0,10.0,33,0.00,,,0.00,Wunderground v.1.15,2013-04-13 20:05:00,
2013-04-13 15:10:00,78.2,45.1,29.91,SE,135,9.0,9.0,31,0.00,,,0.00,Wunderground v.1.15,2013-04-13 20:10:00,
2013-04-13 15:15:00,78.2,45.9,29.90,SE,136,8.0,9.0,32,0.00,,,0.00,Wunderground v.1.15,2013-04-13 20:15:00,
2013-04-13 15:20:00,78.6,48.7,29.90,SE,127,5.0,5.0,35,0.00,,,0.00,Wunderground v.1.15,2013-04-13 20:20:00,
2013-04-13 15:25:00,78.7,47.2,29.90,East,95,5.0,8.0,33,0.00,,,0.00,Wunderground v.1.15,2013-04-13 20:25:00,
2013-04-13 15:30:00,78.2,49.1,29.90,ESE,105,7.0,7.0,36,0.00,,,0.00,Wunderground v.1.15,2013-04-13 20:30:00,
2013-04-13 15:40:00,78.8,50.3,29.89,ENE,73,6.0,6.0,37,0.00,,,0.00,Wunderground v.1.15,2013-04-13 20:40:00,
2013-04-13 15:45:00,78.9,48.1,29.89,ESE,109,6.0,6.0,34,0.00,,,0.00,Wunderground v.1.15,2013-04-13 20:45:00,
2013-04-13 15:50:00,78.8,48.8,29.89,East,88,5.0,6.0,35,0.00,,,0.00,Wunderground v.1.15,2013-04-13 20:50:00,
2013-04-13 15:55:00,78.5,47.8,29.89,ESE,109,6.0,6.0,34,0.00,,,0.00,Wunderground v.1.15,2013-04-13 20:55:00,
2013-04-13 16:00:00,78.8,48.8,29.89,SSE,161,6.0,6.0,35,0.00,,,0.00,Wunderground v.1.15,2013-04-13 21:00:00,
2013-04-13 16:10:00,79.0,48.2,29.88,ENE,64,5.0,5.0,34,0.00,,,0.00,Wunderground v.1.15,2013-04-13 21:10:00,
2013-04-13 16:15:00,78.9,48.1,29.88,East,94,5.0,8.0,34,0.00,,,0.00,Wunderground v.1.15,2013-04-13 21:15:00,
2013-04-13 16:20:00,78.8,49.6,29.88,SSE,158,6.0,6.0,36,0.00,,,0.00,Wunderground v.1.15,2013-04-13 21:20:00,
2013-04-13 16:25:00,79.1,48.3,29.88,SE,132,6.0,6.0,34,0.00,,,0.00,Wunderground v.1.15,2013-04-13 21:25:00,
2013-04-13 16:30:00,79.5,48.7,29.87,East,94,5.0,5.0,34,0.00,,,0.00,Wunderground v.1.15,2013-04-13 21:30:00,
2013-04-13 16:35:00,79.4,47.8,29.88,SE,139,5.0,7.0,33,0.00,,,0.00,Wunderground v.1.15,2013-04-13 21:35:00,
2013-04-13 16:45:00,79.0,48.2,29.87,SE,134,7.0,7.0,34,0.00,,,0.00,Wunderground v.1.15,2013-04-13 21:45:00,
2013-04-13 16:50:00,79.3,48.5,29.87,ESE,114,6.0,6.0,34,0.00,,,0.00,Wunderground v.1.15,2013-04-13 21:50:00,
2013-04-13 16:55:00,79.0,49.8,29.87,SSE,149,7.0,8.0,36,0.00,,,0.00,Wunderground v.1.15,2013-04-13 21:55:00,
2013-04-13 17:00:00,78.6,47.1,29.87,SE,124,7.0,7.0,33,0.00,,,0.00,Wunderground v.1.15,2013-04-13 22:00:00,
2013-04-13 17:05:00,78.8,48.8,29.87,SE,141,6.0,8.0,35,0.00,,,0.00,Wunderground v.1.15,2013-04-13 22:05:00,
2013-04-13 17:15:00,78.6,48.7,29.87,SE,137,6.0,6.0,35,0.00,,,0.00,Wunderground v.1.15,2013-04-13 22:15:00,
2013-04-13 17:20:00,78.4,48.5,29.87,SE,132,6.0,7.0,35,0.00,,,0.00,Wunderground v.1.15,2013-04-13 22:20:00,
2013-04-13 17:25:00,78.2,48.3,29.87,SE,141,8.0,9.0,35,0.00,,,0.00,Wunderground v.1.15,2013-04-13 22:25:00,
2013-04-13 17:30:00,78.1,46.6,29.87,SE,146,8.0,8.0,33,0.00,,,0.00,Wunderground v.1.15,2013-04-13 22:30:00,
2013-04-13 17:35:00,78.1,47.4,29.87,SE,143,7.0,8.0,34,0.00,,,0.00,Wunderground v.1.15,2013-04-13 22:35:00,
2013-04-13 17:40:00,77.8,49.4,29.86,SE,125,7.0,7.0,37,0.00,,,0.00,Wunderground v.1.15,2013-04-13 22:40:00,
2013-04-13 17:50:00,77.0,47.2,29.86,SE,143,6.0,6.0,35,0.00,,,0.00,Wunderground v.1.15,2013-04-13 22:50:00,
2013-04-13 17:55:00,77.3,48.3,29.86,SE,131,6.0,7.0,36,0.00,,,0.00,Wunderground v.1.15,2013-04-13 22:55:00,
2013-04-13 18:00:00,77.2,48.9,29.87,SE,143,7.0,7.0,37,0.00,,,0.00,Wunderground v.1.15,2013-04-13 23:00:00,
2013-04-13 18:05:00,76.8,48.6,29.87,ESE,108,7.0,7.0,37,0.00,,,0.00,Wunderground v.1.15,2013-04-13 23:05:00,
2013-04-13 18:10:00,76.7,49.9,29.87,SE,134,6.0,6.0,39,0.00,,,0.00,Wunderground v.1.15,2013-04-13 23:10:00,
2013-04-13 18:20:00,76.5,49.7,29.87,SE,131,5.0,5.0,39,0.00,,,0.00,Wunderground v.1.15,2013-04-13 23:20:00,
2013-04-13 18:25:00,76.3,50.2,29.87,ESE,123,5.0,5.0,40,0.00,,,0.00,Wunderground v.1.15,2013-04-13 23:25:00,
2013-04-13 18:30:00,76.0,50.6,29.87,SSE,150,5.0,5.0,41,0.00,,,0.00,Wunderground v.1.15,2013-04-13 23:30:00,
2013-04-13 18:35:00,75.8,48.4,29.87,SE,127,5.0,5.0,38,0.00,,,0.00,Wunderground v.1.15,2013-04-13 23:35:00,
2013-04-13 18:40:00,75.4,48.0,29.87,ESE,120,5.0,5.0,38,0.00,,,0.00,Wunderground v.1.15,2013-04-13 23:40:00,
2013-04-13 18:45:00,75.2,49.2,29.87,ESE,105,5.0,5.0,40,0.00,,,0.00,Wunderground v.1.15,2013-04-13 23:45:00,
2013-04-13 18:55:00,74.6,48.0,29.87,East,95,6.0,8.0,39,0.00,,,0.00,Wunderground v.1.15,2013-04-13 23:55:00,
2013-04-13 19:00:00,74.3,47.7,29.87,East,86,5.0,6.0,39,0.00,,,0.00,Wunderground v.1.15,2013-04-14 00:00:00,
2013-04-13 19:05:00,74.0,48.1,29.86,ESE,103,5.0,6.0,40,0.00,,,0.00,Wunderground v.1.15,2013-04-14 00:05:00,
2013-04-13 19:10:00,73.5,48.4,29.87,ESE,122,4.0,4.0,41,0.00,,,0.00,Wunderground v.1.15,2013-04-14 00:10:00,
2013-04-13 19:15:00,73.2,48.1,29.87,ESE,105,4.0,4.0,41,0.00,,,0.00,Wunderground v.1.15,2013-04-14 00:15:00,
2013-04-13 19:25:00,72.5,48.1,29.87,ESE,118,4.0,5.0,42,0.00,,,0.00,Wunderground v.1.15,2013-04-14 00:25:00,
2013-04-13 19:30:00,72.0,48.3,29.87,ESE,123,4.0,4.0,43,0.00,,,0.00,Wunderground v.1.15,2013-04-14 00:30:00,
2013-04-13 19:35:00,71.6,49.1,29.87,ESE,110,4.0,5.0,45,0.00,,,0.00,Wunderground v.1.15,2013-04-14 00:35:00,
2013-04-13 19:40:00,70.9,49.1,29.87,ESE,114,5.0,5.0,46,0.00,,,0.00,Wunderground v.1.15,2013-04-14 00:40:00,
2013-04-13 19:45:00,70.6,48.8,29.87,SE,139,4.0,5.0,46,0.00,,,0.00,Wunderground v.1.15,2013-04-14 00:45:00,
2013-04-13 19:50:00,70.5,48.7,29.86,ESE,113,4.0,4.0,46,0.00,,,0.00,Wunderground v.1.15,2013-04-14 00:50:00,
2013-04-13 20:00:00,70.2,48.4,29.86,ESE,110,3.0,4.0,46,0.00,,,0.00,Wunderground v.1.15,2013-04-14 01:00:00,
2013-04-13 20:05:00,69.5,50.0,29.86,SE,140,3.0,4.0,50,0.00,,,0.00,Wunderground v.1.15,2013-04-14 01:05:00,
2013-04-13 20:10:00,68.6,52.3,29.86,SE,139,3.0,3.0,56,0.00,,,0.00,Wunderground v.1.15,2013-04-14 01:10:00,
2013-04-13 20:15:00,68.0,50.2,29.86,SE,134,3.0,3.0,53,0.00,,,0.00,Wunderground v.1.15,2013-04-14 01:15:00,
2013-04-13 20:20:00,67.8,49.5,29.87,SE,127,3.0,3.0,52,0.00,,,0.00,Wunderground v.1.15,2013-04-14 01:20:00,
2013-04-13 20:25:00,67.9,49.1,29.86,ESE,118,3.0,4.0,51,0.00,,,0.00,Wunderground v.1.15,2013-04-14 01:25:00,
2013-04-13 20:30:00,67.9,49.1,29.87,SE,134,3.0,3.0,51,0.00,,,0.00,Wunderground v.1.15,2013-04-14 01:30:00,
2013-04-13 20:35:00,67.5,51.2,29.87,ESE,120,3.0,3.0,56,0.00,,,0.00,Wunderground v.1.15,2013-04-14 01:35:00,
2013-04-13 20:40:00,67.2,49.0,29.87,SE,129,2.0,2.0,52,0.00,,,0.00,Wunderground v.1.15,2013-04-14 01:40:00,
2013-04-13 20:45:00,67.4,48.6,29.88,ESE,120,2.0,3.0,51,0.00,,,0.00,Wunderground v.1.15,2013-04-14 01:45:00,
2013-04-13 20:50:00,67.9,48.0,29.87,SE,141,2.0,2.0,49,0.00,,,0.00,Wunderground v.1.15,2013-04-14 01:50:00,
2013-04-13 20:55:00,67.9,49.6,29.88,SE,126,3.0,3.0,52,0.00,,,0.00,Wunderground v.1.15,2013-04-14 01:55:00,
2013-04-13 21:00:00,67.5,48.7,29.88,SE,136,3.0,3.0,51,0.00,,,0.00,Wunderground v.1.15,2013-04-14 02:00:00,
2013-04-13 21:05:00,67.5,49.3,29.88,ESE,123,3.0,3.0,52,0.00,,,0.00,Wunderground v.1.15,2013-04-14 02:05:00,
2013-04-13 21:10:00,67.4,49.2,29.88,SE,131,3.0,3.0,52,0.00,,,0.00,Wunderground v.1.15,2013-04-14 02:10:00,
2013-04-13 21:15:00,67.5,49.3,29.88,ESE,123,3.0,4.0,52,0.00,,,0.00,Wunderground v.1.15,2013-04-14 02:15:00,
2013-04-13 21:20:00,67.6,49.3,29.88,ESE,108,4.0,4.0,52,0.00,,,0.00,Wunderground v.1.15,2013-04-14 02:20:00,
2013-04-13 21:25:00,67.6,51.3,29.88,SE,139,4.0,4.0,56,0.00,,,0.00,Wunderground v.1.15,2013-04-14 02:25:00,
2013-04-13 21:35:00,67.5,50.8,29.88,SE,143,4.0,4.0,55,0.00,,,0.00,Wunderground v.1.15,2013-04-14 02:35:00,
2013-04-13 21:40:00,67.6,51.8,29.88,SE,138,4.0,4.0,57,0.00,,,0.00,Wunderground v.1.15,2013-04-14 02:40:00,
2013-04-13 21:45:00,67.6,52.3,29.88,SE,145,4.0,4.0,58,0.00,,,0.00,Wunderground v.1.15,2013-04-14 02:45:00,
2013-04-13 21:50:00,67.7,52.9,29.89,ESE,122,4.0,5.0,59,0.00,,,0.00,Wunderground v.1.15,2013-04-14 02:50:00,
2013-04-13 21:55:00,67.8,53.4,29.88,ESE,120,5.0,5.0,60,0.00,,,0.00,Wunderground v.1.15,2013-04-14 02:55:00,
2013-04-13 22:05:00,67.5,53.6,29.88,SE,131,4.0,5.0,61,0.00,,,0.00,Wunderground v.1.15,2013-04-14 03:05:00,
2013-04-13 22:10:00,67.4,53.5,29.88,East,94,4.0,4.0,61,0.00,,,0.00,Wunderground v.1.15,2013-04-14 03:10:00,
2013-04-13 22:15:00,67.4,53.0,29.88,ESE,102,4.0,4.0,60,0.00,,,0.00,Wunderground v.1.15,2013-04-14 03:15:00,
2013-04-13 22:20:00,67.6,53.2,29.88,ESE,109,4.0,4.0,60,0.00,,,0.00,Wunderground v.1.15,2013-04-14 03:20:00,
2013-04-13 22:25:00,67.6,52.8,29.88,SE,128,3.0,4.0,59,0.00,,,0.00,Wunderground v.1.15,2013-04-14 03:25:00,
2013-04-13 22:30:00,67.6,53.2,29.87,ESE,112,3.0,5.0,60,0.00,,,0.00,Wunderground v.1.15,2013-04-14 03:30:00,
2013-04-13 22:40:00,67.6,51.3,29.87,ESE,103,5.0,5.0,56,0.00,,,0.00,Wunderground v.1.15,2013-04-14 03:40:00,
2013-04-13 22:45:00,67.3,51.1,29.87,SSE,150,4.0,5.0,56,0.00,,,0.00,Wunderground v.1.15,2013-04-14 03:45:00,
2013-04-13 22:50:00,67.2,49.5,29.87,ESE,119,4.0,5.0,53,0.00,,,0.00,Wunderground v.1.15,2013-04-14 03:50:00,
2013-04-13 22:55:00,67.3,49.1,29.88,ESE,102,5.0,5.0,52,0.00,,,0.00,Wunderground v.1.15,2013-04-14 03:55:00,
2013-04-13 23:00:00,67.2,49.0,29.87,ESE,120,5.0,5.0,52,0.00,,,0.00,Wunderground v.1.15,2013-04-14 04:00:00,
2013-04-13 23:10:00,67.1,47.8,29.86,East,87,5.0,5.0,50,0.00,,,0.00,Wunderground v.1.15,2013-04-14 04:10:00,
2013-04-13 23:15:00,66.9,47.6,29.87,ESE,122,5.0,5.0,50,0.00,,,0.00,Wunderground v.1.15,2013-04-14 04:15:00,
2013-04-13 23:20:00,66.9,48.2,29.86,SSE,148,5.0,5.0,51,0.00,,,0.00,Wunderground v.1.15,2013-04-14 04:20:00,
2013-04-13 23:25:00,66.7,48.5,29.85,ESE,105,5.0,5.0,52,0.00,,,0.00,Wunderground v.1.15,2013-04-14 04:25:00,
2013-04-13 23:30:00,66.5,48.8,29.85,East,92,4.0,6.0,53,0.00,,,0.00,Wunderground v.1.15,2013-04-14 04:30:00,
2013-04-13 23:35:00,66.5,49.3,29.85,East,101,4.0,6.0,54,0.00,,,0.00,Wunderground v.1.15,2013-04-14 04:35:00,
2013-04-13 23:45:00,66.2,50.5,29.85,SE,128,5.0,6.0,57,0.00,,,0.00,Wunderground v.1.15,2013-04-14 04:45:00,
2013-04-13 23:50:00,66.0,50.8,29.85,ESE,107,6.0,8.0,58,0.00,,,0.00,Wunderground v.1.15,2013-04-14 04:50:00,
2013-04-13 23:55:00,65.7,51.4,29.84,ESE,122,6.0,8.0,60,0.00,,,0.00,Wunderground v.1.15,2013-04-14 04:55:00,